sensor_id;sensor_type;location;lat;lon;timestamp;P1;durP1;ratioP1;P2;durP2;ratioP2
8007;SDS011;4049;49.468;11.200;2023-12-14T00:02:17;12.60;;;7.07;;
8007;SDS011;4049;49.468;11.200;2023-12-14T00:04:46;10.37;;;6.60;;
8007;SDS011;4049;49.468;11.200;2023-12-14T00:07:13;8.83;;;6.17;;
8007;SDS011;4049;49.468;11.200;2023-12-14T00:10:00;9.70;;;5.97;;
8007;SDS011;4049;49.468;11.200;2023-12-14T00:12:28;9.87;;;5.93;;
8007;SDS011;4049;49.468;11.200;2023-12-14T00:14:58;10.87;;;5.87;;
8007;SDS011;4049;49.468;11.200;2023-12-14T00:17:31;10.27;;;6.13;;
8007;SDS011;4049;49.468;11.200;2023-12-14T00:19:59;8.47;;;6.13;;
8007;SDS011;4049;49.468;11.200;2023-12-14T00:22:26;10.50;;;6.63;;
8007;SDS011;4049;49.468;11.200;2023-12-14T00:24:53;11.77;;;7.13;;
8007;SDS011;4049;49.468;11.200;2023-12-14T00:27:22;15.73;;;8.03;;
8007;SDS011;4049;49.468;11.200;2023-12-14T00:29:49;13.80;;;8.30;;
8007;SDS011;4049;49.468;11.200;2023-12-14T00:32:23;11.53;;;7.53;;
8007;SDS011;4049;49.468;11.200;2023-12-14T00:34:50;14.53;;;8.00;;
8007;SDS011;4049;49.468;11.200;2023-12-14T00:37:19;12.03;;;7.80;;
8007;SDS011;4049;49.468;11.200;2023-12-14T00:39:45;13.10;;;8.40;;
8007;SDS011;4049;49.468;11.200;2023-12-14T00:42:12;11.27;;;7.67;;
8007;SDS011;4049;49.468;11.200;2023-12-14T00:44:40;15.03;;;8.17;;
8007;SDS011;4049;49.468;11.200;2023-12-14T00:47:06;12.00;;;7.33;;
8007;SDS011;4049;49.468;11.200;2023-12-14T00:49:33;11.90;;;7.37;;
8007;SDS011;4049;49.468;11.200;2023-12-14T00:52:03;12.27;;;7.53;;
8007;SDS011;4049;49.468;11.200;2023-12-14T00:54:42;9.33;;;6.80;;
8007;SDS011;4049;49.468;11.200;2023-12-14T00:57:09;10.80;;;7.10;;
8007;SDS011;4049;49.468;11.200;2023-12-14T00:59:45;10.97;;;7.00;;
8007;SDS011;4049;49.468;11.200;2023-12-14T01:02:26;11.17;;;7.20;;
8007;SDS011;4049;49.468;11.200;2023-12-14T01:05:04;12.47;;;6.60;;
8007;SDS011;4049;49.468;11.200;2023-12-14T01:07:38;9.63;;;6.50;;
8007;SDS011;4049;49.468;11.200;2023-12-14T01:10:07;10.13;;;6.23;;
8007;SDS011;4049;49.468;11.200;2023-12-14T01:12:34;10.03;;;6.37;;
8007;SDS011;4049;49.468;11.200;2023-12-14T01:15:01;9.50;;;6.50;;
8007;SDS011;4049;49.468;11.200;2023-12-14T01:17:32;12.47;;;6.47;;
8007;SDS011;4049;49.468;11.200;2023-12-14T01:20:18;11.97;;;6.50;;
8007;SDS011;4049;49.468;11.200;2023-12-14T01:22:50;9.10;;;6.03;;
8007;SDS011;4049;49.468;11.200;2023-12-14T01:25:21;12.27;;;6.30;;
8007;SDS011;4049;49.468;11.200;2023-12-14T01:27:51;9.40;;;6.20;;
8007;SDS011;4049;49.468;11.200;2023-12-14T01:30:18;11.00;;;5.90;;
8007;SDS011;4049;49.468;11.200;2023-12-14T01:32:45;8.47;;;5.73;;
8007;SDS011;4049;49.468;11.200;2023-12-14T01:35:15;10.23;;;6.47;;
8007;SDS011;4049;49.468;11.200;2023-12-14T01:37:42;11.40;;;7.17;;
8007;SDS011;4049;49.468;11.200;2023-12-14T01:40:09;11.33;;;7.77;;
8007;SDS011;4049;49.468;11.200;2023-12-14T01:42:38;12.30;;;6.97;;
8007;SDS011;4049;49.468;11.200;2023-12-14T01:45:35;11.97;;;6.87;;
8007;SDS011;4049;49.468;11.200;2023-12-14T01:48:08;12.03;;;7.77;;
8007;SDS011;4049;49.468;11.200;2023-12-14T01:50:35;11.40;;;7.17;;
8007;SDS011;4049;49.468;11.200;2023-12-14T01:53:02;13.40;;;7.73;;
8007;SDS011;4049;49.468;11.200;2023-12-14T01:55:35;12.17;;;8.03;;
8007;SDS011;4049;49.468;11.200;2023-12-14T01:58:04;13.87;;;8.27;;
8007;SDS011;4049;49.468;11.200;2023-12-14T02:00:35;11.80;;;7.47;;
8007;SDS011;4049;49.468;11.200;2023-12-14T02:03:05;11.63;;;7.90;;
8007;SDS011;4049;49.468;11.200;2023-12-14T02:05:32;14.77;;;7.90;;
8007;SDS011;4049;49.468;11.200;2023-12-14T02:07:59;14.00;;;8.87;;
8007;SDS011;4049;49.468;11.200;2023-12-14T02:10:26;13.47;;;7.97;;
8007;SDS011;4049;49.468;11.200;2023-12-14T02:12:53;14.07;;;8.53;;
8007;SDS011;4049;49.468;11.200;2023-12-14T02:15:21;12.00;;;7.17;;
8007;SDS011;4049;49.468;11.200;2023-12-14T02:17:48;13.63;;;8.40;;
8007;SDS011;4049;49.468;11.200;2023-12-14T02:20:18;13.17;;;8.43;;
8007;SDS011;4049;49.468;11.200;2023-12-14T02:22:49;14.93;;;8.77;;
8007;SDS011;4049;49.468;11.200;2023-12-14T02:25:17;14.77;;;8.53;;
8007;SDS011;4049;49.468;11.200;2023-12-14T02:27:44;12.57;;;8.10;;
8007;SDS011;4049;49.468;11.200;2023-12-14T02:30:11;12.60;;;8.47;;
8007;SDS011;4049;49.468;11.200;2023-12-14T02:32:39;12.20;;;8.37;;
8007;SDS011;4049;49.468;11.200;2023-12-14T02:35:07;13.93;;;8.80;;
8007;SDS011;4049;49.468;11.200;2023-12-14T02:37:34;13.80;;;8.67;;
8007;SDS011;4049;49.468;11.200;2023-12-14T02:40:07;12.03;;;8.20;;
8007;SDS011;4049;49.468;11.200;2023-12-14T02:42:36;16.47;;;8.87;;
8007;SDS011;4049;49.468;11.200;2023-12-14T02:45:07;17.10;;;9.30;;
8007;SDS011;4049;49.468;11.200;2023-12-14T02:47:39;13.93;;;8.77;;
8007;SDS011;4049;49.468;11.200;2023-12-14T02:50:09;15.70;;;9.03;;
8007;SDS011;4049;49.468;11.200;2023-12-14T02:52:36;14.50;;;8.63;;
8007;SDS011;4049;49.468;11.200;2023-12-14T02:55:16;13.67;;;9.13;;
8007;SDS011;4049;49.468;11.200;2023-12-14T02:57:46;13.67;;;8.27;;
8007;SDS011;4049;49.468;11.200;2023-12-14T03:00:13;17.23;;;9.17;;
8007;SDS011;4049;49.468;11.200;2023-12-14T03:02:40;14.53;;;9.17;;
8007;SDS011;4049;49.468;11.200;2023-12-14T03:05:08;16.90;;;9.00;;
8007;SDS011;4049;49.468;11.200;2023-12-14T03:07:41;16.77;;;9.20;;
8007;SDS011;4049;49.468;11.200;2023-12-14T03:10:08;14.93;;;8.83;;
8007;SDS011;4049;49.468;11.200;2023-12-14T03:12:37;13.83;;;9.53;;
8007;SDS011;4049;49.468;11.200;2023-12-14T03:15:04;15.30;;;9.37;;
8007;SDS011;4049;49.468;11.200;2023-12-14T03:17:31;18.07;;;10.27;;
8007;SDS011;4049;49.468;11.200;2023-12-14T03:20:00;14.10;;;9.20;;
8007;SDS011;4049;49.468;11.200;2023-12-14T03:22:33;15.97;;;9.53;;
8007;SDS011;4049;49.468;11.200;2023-12-14T03:25:01;14.60;;;9.03;;
8007;SDS011;4049;49.468;11.200;2023-12-14T03:27:28;16.70;;;9.27;;
8007;SDS011;4049;49.468;11.200;2023-12-14T03:29:57;19.23;;;10.77;;
8007;SDS011;4049;49.468;11.200;2023-12-14T03:32:28;15.33;;;8.97;;
8007;SDS011;4049;49.468;11.200;2023-12-14T03:34:55;14.87;;;9.20;;
8007;SDS011;4049;49.468;11.200;2023-12-14T03:37:22;16.83;;;9.17;;
8007;SDS011;4049;49.468;11.200;2023-12-14T03:39:58;17.10;;;9.97;;
8007;SDS011;4049;49.468;11.200;2023-12-14T03:42:27;17.73;;;10.50;;
8007;SDS011;4049;49.468;11.200;2023-12-14T03:44:54;17.97;;;10.23;;
8007;SDS011;4049;49.468;11.200;2023-12-14T03:47:22;16.60;;;9.77;;
8007;SDS011;4049;49.468;11.200;2023-12-14T03:49:52;16.40;;;9.83;;
8007;SDS011;4049;49.468;11.200;2023-12-14T03:52:22;18.13;;;10.13;;
8007;SDS011;4049;49.468;11.200;2023-12-14T03:54:49;17.53;;;9.87;;
8007;SDS011;4049;49.468;11.200;2023-12-14T03:57:22;18.10;;;10.23;;
8007;SDS011;4049;49.468;11.200;2023-12-14T03:59:55;19.67;;;10.90;;
8007;SDS011;4049;49.468;11.200;2023-12-14T04:02:28;18.10;;;9.73;;
8007;SDS011;4049;49.468;11.200;2023-12-14T04:04:54;19.73;;;11.10;;
8007;SDS011;4049;49.468;11.200;2023-12-14T04:07:28;20.83;;;10.63;;
8007;SDS011;4049;49.468;11.200;2023-12-14T04:09:54;18.33;;;10.77;;
8007;SDS011;4049;49.468;11.200;2023-12-14T04:12:28;19.30;;;10.80;;
8007;SDS011;4049;49.468;11.200;2023-12-14T04:14:56;17.20;;;9.80;;
8007;SDS011;4049;49.468;11.200;2023-12-14T04:17:23;18.33;;;10.33;;
8007;SDS011;4049;49.468;11.200;2023-12-14T04:19:52;17.23;;;10.27;;
8007;SDS011;4049;49.468;11.200;2023-12-14T04:22:24;17.03;;;9.70;;
8007;SDS011;4049;49.468;11.200;2023-12-14T04:25:01;19.30;;;10.27;;
8007;SDS011;4049;49.468;11.200;2023-12-14T04:27:29;17.83;;;10.87;;
8007;SDS011;4049;49.468;11.200;2023-12-14T04:30:02;16.57;;;9.90;;
8007;SDS011;4049;49.468;11.200;2023-12-14T04:32:30;17.77;;;10.67;;
8007;SDS011;4049;49.468;11.200;2023-12-14T04:34:59;19.80;;;11.20;;
8007;SDS011;4049;49.468;11.200;2023-12-14T04:37:29;21.27;;;12.00;;
8007;SDS011;4049;49.468;11.200;2023-12-14T04:39:59;21.70;;;10.93;;
8007;SDS011;4049;49.468;11.200;2023-12-14T04:42:29;18.67;;;10.57;;
8007;SDS011;4049;49.468;11.200;2023-12-14T04:44:58;17.60;;;10.10;;
8007;SDS011;4049;49.468;11.200;2023-12-14T04:47:25;19.37;;;10.43;;
8007;SDS011;4049;49.468;11.200;2023-12-14T04:49:55;17.17;;;10.57;;
8007;SDS011;4049;49.468;11.200;2023-12-14T04:52:31;22.70;;;11.50;;
8007;SDS011;4049;49.468;11.200;2023-12-14T04:55:03;17.37;;;10.63;;
8007;SDS011;4049;49.468;11.200;2023-12-14T04:57:41;19.47;;;11.30;;
8007;SDS011;4049;49.468;11.200;2023-12-14T05:00:08;20.47;;;11.27;;
8007;SDS011;4049;49.468;11.200;2023-12-14T05:02:36;19.77;;;11.90;;
8007;SDS011;4049;49.468;11.200;2023-12-14T05:05:03;18.47;;;10.37;;
8007;SDS011;4049;49.468;11.200;2023-12-14T05:07:32;23.23;;;11.97;;
8007;SDS011;4049;49.468;11.200;2023-12-14T05:09:59;18.90;;;10.80;;
8007;SDS011;4049;49.468;11.200;2023-12-14T05:12:29;19.23;;;10.47;;
8007;SDS011;4049;49.468;11.200;2023-12-14T05:15:20;19.87;;;10.93;;
8007;SDS011;4049;49.468;11.200;2023-12-14T05:17:46;17.73;;;10.17;;
8007;SDS011;4049;49.468;11.200;2023-12-14T05:20:13;18.70;;;11.10;;
8007;SDS011;4049;49.468;11.200;2023-12-14T05:22:42;19.43;;;10.33;;
8007;SDS011;4049;49.468;11.200;2023-12-14T05:25:18;20.23;;;11.00;;
8007;SDS011;4049;49.468;11.200;2023-12-14T05:27:45;24.23;;;12.47;;
8007;SDS011;4049;49.468;11.200;2023-12-14T05:30:12;23.93;;;12.20;;
8007;SDS011;4049;49.468;11.200;2023-12-14T05:32:39;21.87;;;11.93;;
8007;SDS011;4049;49.468;11.200;2023-12-14T05:35:06;23.47;;;11.63;;
8007;SDS011;4049;49.468;11.200;2023-12-14T05:37:34;20.80;;;11.27;;
8007;SDS011;4049;49.468;11.200;2023-12-14T05:40:03;22.43;;;12.20;;
8007;SDS011;4049;49.468;11.200;2023-12-14T05:42:31;21.03;;;11.17;;
8007;SDS011;4049;49.468;11.200;2023-12-14T05:44:58;20.13;;;11.77;;
8007;SDS011;4049;49.468;11.200;2023-12-14T05:47:25;20.37;;;10.80;;
8007;SDS011;4049;49.468;11.200;2023-12-14T05:49:52;18.70;;;10.40;;
8007;SDS011;4049;49.468;11.200;2023-12-14T05:52:19;17.83;;;10.23;;
8007;SDS011;4049;49.468;11.200;2023-12-14T05:54:46;18.97;;;10.30;;
8007;SDS011;4049;49.468;11.200;2023-12-14T05:57:14;21.60;;;11.60;;
8007;SDS011;4049;49.468;11.200;2023-12-14T05:59:41;19.87;;;11.03;;
8007;SDS011;4049;49.468;11.200;2023-12-14T06:02:07;22.30;;;10.80;;
8007;SDS011;4049;49.468;11.200;2023-12-14T06:04:34;19.83;;;11.37;;
8007;SDS011;4049;49.468;11.200;2023-12-14T06:07:01;20.73;;;11.47;;
8007;SDS011;4049;49.468;11.200;2023-12-14T06:09:28;20.00;;;12.23;;
8007;SDS011;4049;49.468;11.200;2023-12-14T06:11:59;20.83;;;11.13;;
8007;SDS011;4049;49.468;11.200;2023-12-14T06:14:27;22.00;;;11.67;;
8007;SDS011;4049;49.468;11.200;2023-12-14T06:16:54;23.10;;;11.80;;
8007;SDS011;4049;49.468;11.200;2023-12-14T06:19:21;20.33;;;11.50;;
8007;SDS011;4049;49.468;11.200;2023-12-14T06:21:48;20.17;;;11.47;;
8007;SDS011;4049;49.468;11.200;2023-12-14T06:24:15;19.43;;;11.53;;
8007;SDS011;4049;49.468;11.200;2023-12-14T06:26:42;22.97;;;11.53;;
8007;SDS011;4049;49.468;11.200;2023-12-14T06:29:09;21.43;;;11.83;;
8007;SDS011;4049;49.468;11.200;2023-12-14T06:31:38;22.50;;;11.50;;
8007;SDS011;4049;49.468;11.200;2023-12-14T06:34:05;23.50;;;12.07;;
8007;SDS011;4049;49.468;11.200;2023-12-14T06:36:32;25.50;;;13.13;;
8007;SDS011;4049;49.468;11.200;2023-12-14T06:39:00;21.50;;;12.60;;
8007;SDS011;4049;49.468;11.200;2023-12-14T06:41:28;19.47;;;12.07;;
8007;SDS011;4049;49.468;11.200;2023-12-14T06:43:55;20.63;;;11.43;;
8007;SDS011;4049;49.468;11.200;2023-12-14T06:46:22;19.63;;;10.93;;
8007;SDS011;4049;49.468;11.200;2023-12-14T06:48:50;21.63;;;11.20;;
8007;SDS011;4049;49.468;11.200;2023-12-14T06:51:17;21.50;;;12.27;;
8007;SDS011;4049;49.468;11.200;2023-12-14T06:53:44;21.13;;;11.27;;
8007;SDS011;4049;49.468;11.200;2023-12-14T06:56:12;21.83;;;12.43;;
8007;SDS011;4049;49.468;11.200;2023-12-14T06:58:40;19.27;;;11.10;;
8007;SDS011;4049;49.468;11.200;2023-12-14T07:01:07;21.03;;;10.83;;
8007;SDS011;4049;49.468;11.200;2023-12-14T07:03:39;18.60;;;10.63;;
8007;SDS011;4049;49.468;11.200;2023-12-14T07:06:07;20.70;;;11.87;;
8007;SDS011;4049;49.468;11.200;2023-12-14T07:08:38;19.00;;;10.83;;
8007;SDS011;4049;49.468;11.200;2023-12-14T07:11:06;20.33;;;10.67;;
8007;SDS011;4049;49.468;11.200;2023-12-14T07:13:33;18.90;;;11.10;;
8007;SDS011;4049;49.468;11.200;2023-12-14T07:16:01;19.70;;;10.87;;
8007;SDS011;4049;49.468;11.200;2023-12-14T07:18:29;26.83;;;11.97;;
8007;SDS011;4049;49.468;11.200;2023-12-14T07:20:56;22.50;;;11.17;;
8007;SDS011;4049;49.468;11.200;2023-12-14T07:23:24;22.37;;;12.93;;
8007;SDS011;4049;49.468;11.200;2023-12-14T07:25:52;23.13;;;12.30;;
8007;SDS011;4049;49.468;11.200;2023-12-14T07:28:18;24.53;;;11.63;;
8007;SDS011;4049;49.468;11.200;2023-12-14T07:30:45;22.07;;;11.60;;
8007;SDS011;4049;49.468;11.200;2023-12-14T07:33:12;23.40;;;11.97;;
8007;SDS011;4049;49.468;11.200;2023-12-14T07:35:39;20.27;;;11.20;;
8007;SDS011;4049;49.468;11.200;2023-12-14T07:38:07;23.73;;;11.27;;
8007;SDS011;4049;49.468;11.200;2023-12-14T07:40:35;23.10;;;12.60;;
8007;SDS011;4049;49.468;11.200;2023-12-14T07:43:03;20.13;;;11.33;;
8007;SDS011;4049;49.468;11.200;2023-12-14T07:45:30;21.47;;;11.77;;
8007;SDS011;4049;49.468;11.200;2023-12-14T07:47:57;18.40;;;11.30;;
8007;SDS011;4049;49.468;11.200;2023-12-14T07:50:25;20.47;;;11.17;;
8007;SDS011;4049;49.468;11.200;2023-12-14T07:52:52;24.10;;;12.67;;
8007;SDS011;4049;49.468;11.200;2023-12-14T07:55:19;19.10;;;11.10;;
8007;SDS011;4049;49.468;11.200;2023-12-14T07:57:47;24.00;;;12.40;;
8007;SDS011;4049;49.468;11.200;2023-12-14T08:00:15;22.23;;;10.70;;
8007;SDS011;4049;49.468;11.200;2023-12-14T08:02:42;20.87;;;10.90;;
8007;SDS011;4049;49.468;11.200;2023-12-14T08:05:09;21.00;;;11.03;;
8007;SDS011;4049;49.468;11.200;2023-12-14T08:07:36;19.70;;;10.93;;
8007;SDS011;4049;49.468;11.200;2023-12-14T08:10:03;19.03;;;11.27;;
8007;SDS011;4049;49.468;11.200;2023-12-14T08:12:30;19.77;;;11.27;;
8007;SDS011;4049;49.468;11.200;2023-12-14T08:14:59;21.60;;;11.67;;
8007;SDS011;4049;49.468;11.200;2023-12-14T08:17:25;23.10;;;12.40;;
8007;SDS011;4049;49.468;11.200;2023-12-14T08:19:53;25.27;;;12.13;;
8007;SDS011;4049;49.468;11.200;2023-12-14T08:22:19;19.43;;;10.57;;
8007;SDS011;4049;49.468;11.200;2023-12-14T08:24:47;19.77;;;10.83;;
8007;SDS011;4049;49.468;11.200;2023-12-14T08:27:14;21.43;;;11.83;;
8007;SDS011;4049;49.468;11.200;2023-12-14T08:29:41;24.33;;;12.03;;
8007;SDS011;4049;49.468;11.200;2023-12-14T08:32:09;20.90;;;11.77;;
8007;SDS011;4049;49.468;11.200;2023-12-14T08:34:36;25.63;;;11.90;;
8007;SDS011;4049;49.468;11.200;2023-12-14T08:37:03;20.57;;;12.50;;
8007;SDS011;4049;49.468;11.200;2023-12-14T08:39:30;20.70;;;12.03;;
8007;SDS011;4049;49.468;11.200;2023-12-14T08:41:57;22.30;;;11.57;;
8007;SDS011;4049;49.468;11.200;2023-12-14T08:44:23;21.97;;;11.97;;
8007;SDS011;4049;49.468;11.200;2023-12-14T08:46:50;24.07;;;12.37;;
8007;SDS011;4049;49.468;11.200;2023-12-14T08:49:18;24.03;;;12.03;;
8007;SDS011;4049;49.468;11.200;2023-12-14T08:51:45;24.93;;;12.40;;
8007;SDS011;4049;49.468;11.200;2023-12-14T08:54:14;25.07;;;12.47;;
8007;SDS011;4049;49.468;11.200;2023-12-14T08:56:42;23.80;;;11.97;;
8007;SDS011;4049;49.468;11.200;2023-12-14T08:59:09;21.50;;;11.37;;
8007;SDS011;4049;49.468;11.200;2023-12-14T09:01:35;24.77;;;12.77;;
8007;SDS011;4049;49.468;11.200;2023-12-14T09:04:02;23.37;;;12.30;;
8007;SDS011;4049;49.468;11.200;2023-12-14T09:06:31;20.70;;;11.90;;
8007;SDS011;4049;49.468;11.200;2023-12-14T09:08:57;21.80;;;11.50;;
8007;SDS011;4049;49.468;11.200;2023-12-14T09:11:24;18.40;;;10.97;;
8007;SDS011;4049;49.468;11.200;2023-12-14T09:13:51;20.90;;;11.23;;
8007;SDS011;4049;49.468;11.200;2023-12-14T09:16:18;23.63;;;11.60;;
8007;SDS011;4049;49.468;11.200;2023-12-14T09:18:45;21.63;;;11.33;;
8007;SDS011;4049;49.468;11.200;2023-12-14T09:21:12;21.87;;;11.07;;
8007;SDS011;4049;49.468;11.200;2023-12-14T09:23:41;22.40;;;11.77;;
8007;SDS011;4049;49.468;11.200;2023-12-14T09:26:08;21.87;;;12.27;;
8007;SDS011;4049;49.468;11.200;2023-12-14T09:28:35;19.73;;;11.50;;
8007;SDS011;4049;49.468;11.200;2023-12-14T09:31:02;21.43;;;11.63;;
8007;SDS011;4049;49.468;11.200;2023-12-14T09:33:29;20.20;;;11.20;;
8007;SDS011;4049;49.468;11.200;2023-12-14T09:35:56;23.83;;;12.00;;
8007;SDS011;4049;49.468;11.200;2023-12-14T09:38:23;19.73;;;11.63;;
8007;SDS011;4049;49.468;11.200;2023-12-14T09:40:51;19.53;;;11.70;;
8007;SDS011;4049;49.468;11.200;2023-12-14T09:43:18;22.07;;;12.13;;
8007;SDS011;4049;49.468;11.200;2023-12-14T09:45:46;23.47;;;12.00;;
8007;SDS011;4049;49.468;11.200;2023-12-14T09:48:15;23.50;;;12.60;;
8007;SDS011;4049;49.468;11.200;2023-12-14T09:50:42;22.80;;;12.83;;
8007;SDS011;4049;49.468;11.200;2023-12-14T09:53:10;24.27;;;12.40;;
8007;SDS011;4049;49.468;11.200;2023-12-14T09:55:37;25.30;;;12.50;;
8007;SDS011;4049;49.468;11.200;2023-12-14T09:58:05;21.40;;;11.77;;
8007;SDS011;4049;49.468;11.200;2023-12-14T10:00:35;20.23;;;10.53;;
8007;SDS011;4049;49.468;11.200;2023-12-14T10:03:24;19.03;;;10.23;;
8007;SDS011;4049;49.468;11.200;2023-12-14T10:05:53;21.03;;;10.23;;
8007;SDS011;4049;49.468;11.200;2023-12-14T10:08:20;22.90;;;11.17;;
8007;SDS011;4049;49.468;11.200;2023-12-14T10:10:48;19.03;;;10.73;;
8007;SDS011;4049;49.468;11.200;2023-12-14T10:13:17;20.20;;;10.50;;
8007;SDS011;4049;49.468;11.200;2023-12-14T10:15:45;20.20;;;10.50;;
8007;SDS011;4049;49.468;11.200;2023-12-14T10:18:16;19.67;;;10.73;;
8007;SDS011;4049;49.468;11.200;2023-12-14T10:20:48;20.00;;;11.63;;
8007;SDS011;4049;49.468;11.200;2023-12-14T10:23:15;20.70;;;10.37;;
8007;SDS011;4049;49.468;11.200;2023-12-14T10:25:43;20.97;;;11.33;;
8007;SDS011;4049;49.468;11.200;2023-12-14T10:28:11;18.37;;;11.00;;
8007;SDS011;4049;49.468;11.200;2023-12-14T10:30:40;20.40;;;10.63;;
8007;SDS011;4049;49.468;11.200;2023-12-14T10:33:08;17.83;;;10.60;;
8007;SDS011;4049;49.468;11.200;2023-12-14T10:35:35;20.50;;;10.80;;
8007;SDS011;4049;49.468;11.200;2023-12-14T10:38:02;19.33;;;10.87;;
8007;SDS011;4049;49.468;11.200;2023-12-14T10:40:31;19.87;;;10.57;;
8007;SDS011;4049;49.468;11.200;2023-12-14T10:42:58;17.27;;;10.60;;
8007;SDS011;4049;49.468;11.200;2023-12-14T10:45:27;18.03;;;10.63;;
8007;SDS011;4049;49.468;11.200;2023-12-14T10:47:57;16.47;;;9.80;;
8007;SDS011;4049;49.468;11.200;2023-12-14T10:50:26;16.50;;;9.83;;
8007;SDS011;4049;49.468;11.200;2023-12-14T10:52:55;20.07;;;10.70;;
8007;SDS011;4049;49.468;11.200;2023-12-14T10:55:24;20.20;;;10.00;;
8007;SDS011;4049;49.468;11.200;2023-12-14T10:57:55;18.23;;;10.17;;
8007;SDS011;4049;49.468;11.200;2023-12-14T11:00:23;15.37;;;9.63;;
8007;SDS011;4049;49.468;11.200;2023-12-14T11:02:50;18.97;;;10.43;;
8007;SDS011;4049;49.468;11.200;2023-12-14T11:05:19;18.10;;;9.87;;
8007;SDS011;4049;49.468;11.200;2023-12-14T11:07:54;19.23;;;10.33;;
8007;SDS011;4049;49.468;11.200;2023-12-14T11:10:26;16.63;;;9.63;;
8007;SDS011;4049;49.468;11.200;2023-12-14T11:12:57;19.07;;;10.00;;
8007;SDS011;4049;49.468;11.200;2023-12-14T11:15:27;18.90;;;9.93;;
8007;SDS011;4049;49.468;11.200;2023-12-14T11:20:56;18.83;;;10.33;;
8007;SDS011;4049;49.468;11.200;2023-12-14T11:23:35;16.97;;;9.10;;
8007;SDS011;4049;49.468;11.200;2023-12-14T11:26:04;13.90;;;8.60;;
8007;SDS011;4049;49.468;11.200;2023-12-14T11:28:32;16.93;;;9.30;;
8007;SDS011;4049;49.468;11.200;2023-12-14T11:31:01;16.90;;;9.73;;
8007;SDS011;4049;49.468;11.200;2023-12-14T11:33:31;16.87;;;10.20;;
8007;SDS011;4049;49.468;11.200;2023-12-14T11:36:00;19.00;;;9.57;;
8007;SDS011;4049;49.468;11.200;2023-12-14T11:38:28;16.63;;;9.43;;
8007;SDS011;4049;49.468;11.200;2023-12-14T11:40:55;19.33;;;10.43;;
8007;SDS011;4049;49.468;11.200;2023-12-14T11:43:22;18.47;;;9.80;;
8007;SDS011;4049;49.468;11.200;2023-12-14T11:45:51;17.23;;;9.90;;
8007;SDS011;4049;49.468;11.200;2023-12-14T11:48:19;19.07;;;10.70;;
8007;SDS011;4049;49.468;11.200;2023-12-14T11:50:46;23.07;;;10.73;;
8007;SDS011;4049;49.468;11.200;2023-12-14T11:53:14;19.17;;;10.90;;
8007;SDS011;4049;49.468;11.200;2023-12-14T11:55:42;17.53;;;10.27;;
8007;SDS011;4049;49.468;11.200;2023-12-14T11:58:11;19.93;;;10.53;;
8007;SDS011;4049;49.468;11.200;2023-12-14T12:00:40;22.47;;;11.10;;
8007;SDS011;4049;49.468;11.200;2023-12-14T12:03:07;22.13;;;10.53;;
8007;SDS011;4049;49.468;11.200;2023-12-14T12:05:35;16.73;;;9.97;;
8007;SDS011;4049;49.468;11.200;2023-12-14T12:08:03;20.23;;;11.00;;
8007;SDS011;4049;49.468;11.200;2023-12-14T12:10:31;19.43;;;10.57;;
8007;SDS011;4049;49.468;11.200;2023-12-14T12:12:59;20.60;;;10.80;;
8007;SDS011;4049;49.468;11.200;2023-12-14T12:15:27;18.47;;;10.40;;
8007;SDS011;4049;49.468;11.200;2023-12-14T12:17:56;21.27;;;11.63;;
8007;SDS011;4049;49.468;11.200;2023-12-14T12:20:23;19.87;;;11.07;;
8007;SDS011;4049;49.468;11.200;2023-12-14T12:22:50;20.20;;;11.20;;
8007;SDS011;4049;49.468;11.200;2023-12-14T12:25:17;21.97;;;11.50;;
8007;SDS011;4049;49.468;11.200;2023-12-14T12:27:46;21.13;;;11.23;;
8007;SDS011;4049;49.468;11.200;2023-12-14T12:30:12;17.33;;;10.53;;
8007;SDS011;4049;49.468;11.200;2023-12-14T12:32:40;19.57;;;10.87;;
8007;SDS011;4049;49.468;11.200;2023-12-14T12:35:07;21.47;;;10.77;;
8007;SDS011;4049;49.468;11.200;2023-12-14T12:37:34;19.07;;;10.80;;
8007;SDS011;4049;49.468;11.200;2023-12-14T12:40:01;18.33;;;11.80;;
8007;SDS011;4049;49.468;11.200;2023-12-14T12:42:29;17.93;;;11.10;;
8007;SDS011;4049;49.468;11.200;2023-12-14T12:44:57;18.60;;;10.70;;
8007;SDS011;4049;49.468;11.200;2023-12-14T12:47:24;20.70;;;11.30;;
8007;SDS011;4049;49.468;11.200;2023-12-14T12:49:51;20.37;;;11.03;;
8007;SDS011;4049;49.468;11.200;2023-12-14T12:52:18;19.90;;;10.40;;
8007;SDS011;4049;49.468;11.200;2023-12-14T12:54:45;16.03;;;10.37;;
8007;SDS011;4049;49.468;11.200;2023-12-14T12:57:11;23.17;;;10.60;;
8007;SDS011;4049;49.468;11.200;2023-12-14T12:59:38;19.30;;;10.93;;
8007;SDS011;4049;49.468;11.200;2023-12-14T13:02:06;18.20;;;10.40;;
8007;SDS011;4049;49.468;11.200;2023-12-14T13:04:33;16.43;;;9.77;;
8007;SDS011;4049;49.468;11.200;2023-12-14T13:07:02;14.10;;;9.10;;
8007;SDS011;4049;49.468;11.200;2023-12-14T13:09:29;16.40;;;10.40;;
8007;SDS011;4049;49.468;11.200;2023-12-14T13:11:56;16.63;;;9.60;;
8007;SDS011;4049;49.468;11.200;2023-12-14T13:14:23;17.13;;;9.43;;
8007;SDS011;4049;49.468;11.200;2023-12-14T13:16:50;13.83;;;8.13;;
8007;SDS011;4049;49.468;11.200;2023-12-14T13:19:18;13.97;;;9.10;;
8007;SDS011;4049;49.468;11.200;2023-12-14T13:21:44;13.10;;;8.33;;
8007;SDS011;4049;49.468;11.200;2023-12-14T13:24:11;16.10;;;9.67;;
8007;SDS011;4049;49.468;11.200;2023-12-14T13:26:38;15.80;;;8.73;;
8007;SDS011;4049;49.468;11.200;2023-12-14T13:29:05;15.20;;;9.57;;
8007;SDS011;4049;49.468;11.200;2023-12-14T13:31:32;12.97;;;8.70;;
8007;SDS011;4049;49.468;11.200;2023-12-14T13:33:59;18.87;;;8.80;;
8007;SDS011;4049;49.468;11.200;2023-12-14T13:36:27;16.97;;;9.87;;
8007;SDS011;4049;49.468;11.200;2023-12-14T13:38:55;16.83;;;9.83;;
8007;SDS011;4049;49.468;11.200;2023-12-14T13:41:22;15.90;;;9.10;;
8007;SDS011;4049;49.468;11.200;2023-12-14T13:43:49;18.87;;;10.37;;
8007;SDS011;4049;49.468;11.200;2023-12-14T13:46:16;21.50;;;11.27;;
8007;SDS011;4049;49.468;11.200;2023-12-14T13:48:43;18.63;;;10.33;;
8007;SDS011;4049;49.468;11.200;2023-12-14T13:51:10;19.30;;;10.47;;
8007;SDS011;4049;49.468;11.200;2023-12-14T13:53:38;17.47;;;9.77;;
8007;SDS011;4049;49.468;11.200;2023-12-14T13:56:05;19.63;;;10.03;;
8007;SDS011;4049;49.468;11.200;2023-12-14T13:58:33;19.07;;;9.93;;
8007;SDS011;4049;49.468;11.200;2023-12-14T14:01:03;17.93;;;9.67;;
8007;SDS011;4049;49.468;11.200;2023-12-14T14:03:32;17.40;;;9.33;;
8007;SDS011;4049;49.468;11.200;2023-12-14T14:05:58;17.47;;;9.23;;
8007;SDS011;4049;49.468;11.200;2023-12-14T14:08:27;17.33;;;8.47;;
8007;SDS011;4049;49.468;11.200;2023-12-14T14:10:55;13.93;;;8.37;;
8007;SDS011;4049;49.468;11.200;2023-12-14T14:13:22;15.43;;;8.87;;
8007;SDS011;4049;49.468;11.200;2023-12-14T14:15:49;15.73;;;8.83;;
8007;SDS011;4049;49.468;11.200;2023-12-14T14:18:15;14.53;;;8.40;;
8007;SDS011;4049;49.468;11.200;2023-12-14T14:20:42;12.43;;;8.37;;
8007;SDS011;4049;49.468;11.200;2023-12-14T14:23:09;15.17;;;8.37;;
8007;SDS011;4049;49.468;11.200;2023-12-14T14:25:36;16.80;;;8.70;;
8007;SDS011;4049;49.468;11.200;2023-12-14T14:28:04;16.03;;;9.07;;
8007;SDS011;4049;49.468;11.200;2023-12-14T14:30:31;14.80;;;9.40;;
8007;SDS011;4049;49.468;11.200;2023-12-14T14:32:58;15.47;;;9.13;;
8007;SDS011;4049;49.468;11.200;2023-12-14T14:35:25;12.13;;;8.03;;
8007;SDS011;4049;49.468;11.200;2023-12-14T14:37:53;16.10;;;8.67;;
8007;SDS011;4049;49.468;11.200;2023-12-14T14:40:23;12.97;;;7.80;;
8007;SDS011;4049;49.468;11.200;2023-12-14T14:42:50;13.30;;;7.60;;
8007;SDS011;4049;49.468;11.200;2023-12-14T14:45:18;11.50;;;6.90;;
8007;SDS011;4049;49.468;11.200;2023-12-14T14:47:45;13.47;;;7.40;;
8007;SDS011;4049;49.468;11.200;2023-12-14T14:50:12;12.87;;;7.00;;
8007;SDS011;4049;49.468;11.200;2023-12-14T14:52:39;9.53;;;6.13;;